sensor_id;sensor_type;location;lat;lon;timestamp;pressure;altitude;pressure_sealevel;temperature;humidity
41688;BME280;27371;42.686;23.362;2023-06-26T00:03:16;167532.63;;;20.41;87.52
41688;BME280;27371;42.686;23.362;2023-06-26T00:05:41;167523.25;;;20.38;87.88
41688;BME280;27371;42.686;23.362;2023-06-26T00:08:07;167529.97;;;20.40;88.00
41688;BME280;27371;42.686;23.362;2023-06-26T00:10:34;167488.31;;;20.24;88.06
41688;BME280;27371;42.686;23.362;2023-06-26T00:12:59;167513.81;;;20.34;88.11
41688;BME280;27371;42.686;23.362;2023-06-26T00:15:25;167536.69;;;20.43;88.03
41688;BME280;27371;42.686;23.362;2023-06-26T00:17:51;167543.41;;;20.45;87.85
41688;BME280;27371;42.686;23.362;2023-06-26T00:20:16;167536.69;;;20.43;87.85
41688;BME280;27371;42.686;23.362;2023-06-26T00:22:44;167535.31;;;20.42;87.68
41688;BME280;27371;42.686;23.362;2023-06-26T00:25:10;167460.09;;;20.14;88.09
41688;BME280;27371;42.686;23.362;2023-06-26T00:27:36;167511.13;;;20.33;88.13
41688;BME280;27371;42.686;23.362;2023-06-26T00:30:03;167509.81;;;20.33;88.24
41688;BME280;27371;42.686;23.362;2023-06-26T00:32:28;167500.41;;;20.29;88.23
41688;BME280;27371;42.686;23.362;2023-06-26T00:34:54;167484.25;;;20.23;88.60
41688;BME280;27371;42.686;23.362;2023-06-26T00:37:19;167472.19;;;20.18;88.64
41688;BME280;27371;42.686;23.362;2023-06-26T00:39:46;167482.91;;;20.22;88.79
41688;BME280;27371;42.686;23.362;2023-06-26T00:44:56;167488.31;;;20.24;88.72
41688;BME280;27371;42.686;23.362;2023-06-26T00:47:21;167485.63;;;20.23;88.88
41688;BME280;27371;42.686;23.362;2023-06-26T00:49:47;167473.53;;;20.19;89.29
41688;BME280;27371;42.686;23.362;2023-06-26T00:52:13;167454.69;;;20.12;89.19
41688;BME280;27371;42.686;23.362;2023-06-26T00:54:39;167449.38;;;20.10;89.08
41688;BME280;27371;42.686;23.362;2023-06-26T00:57:04;167469.47;;;20.17;89.12
41688;BME280;27371;42.686;23.362;2023-06-26T00:59:30;167465.47;;;20.16;89.23
41688;BME280;27371;42.686;23.362;2023-06-26T01:01:56;167454.69;;;20.12;89.31
41688;BME280;27371;42.686;23.362;2023-06-26T01:04:21;167472.19;;;20.18;88.94
41688;BME280;27371;42.686;23.362;2023-06-26T01:06:47;167469.47;;;20.17;88.89
41688;BME280;27371;42.686;23.362;2023-06-26T01:09:21;167464.13;;;20.15;89.15
41688;BME280;27371;42.686;23.362;2023-06-26T01:11:47;167447.97;;;20.09;89.03
41688;BME280;27371;42.686;23.362;2023-06-26T01:14:13;167372.78;;;19.80;89.50
41688;BME280;27371;42.686;23.362;2023-06-26T01:16:40;167403.66;;;19.92;89.51
41688;BME280;27371;42.686;23.362;2023-06-26T01:19:11;167431.88;;;20.03;89.60
41688;BME280;27371;42.686;23.362;2023-06-26T01:21:42;167273.31;;;19.43;89.53
41688;BME280;27371;42.686;23.362;2023-06-26T01:24:18;167406.38;;;19.93;89.61
41688;BME280;27371;42.686;23.362;2023-06-26T01:26:52;167374.13;;;19.81;90.08
41688;BME280;27371;42.686;23.362;2023-06-26T01:29:19;167411.72;;;19.95;90.08
41688;BME280;27371;42.686;23.362;2023-06-26T01:31:47;167396.94;;;19.90;90.04
41688;BME280;27371;42.686;23.362;2023-06-26T01:34:18;167360.69;;;19.76;89.90
41688;BME280;27371;42.686;23.362;2023-06-26T01:36:44;167375.44;;;19.82;90.64
41688;BME280;27371;42.686;23.362;2023-06-26T01:39:14;167366.06;;;19.78;90.77
41688;BME280;27371;42.686;23.362;2023-06-26T01:41:40;167352.63;;;19.73;90.74
41688;BME280;27371;42.686;23.362;2023-06-26T01:52:07;167320.34;;;19.61;91.84
41688;BME280;27371;42.686;23.362;2023-06-26T01:54:39;167270.66;;;19.42;91.79
41688;BME280;27371;42.686;23.362;2023-06-26T01:57:08;167290.81;;;19.49;92.06
41688;BME280;27371;42.686;23.362;2023-06-26T01:59:35;167285.44;;;19.47;92.33
41688;BME280;27371;42.686;23.362;2023-06-26T02:02:02;167261.28;;;19.38;92.37
41688;BME280;27371;42.686;23.362;2023-06-26T02:04:28;167274.66;;;19.43;92.88
41688;BME280;27371;42.686;23.362;2023-06-26T02:06:53;167273.31;;;19.43;92.76
41688;BME280;27371;42.686;23.362;2023-06-26T02:09:20;167266.59;;;19.40;92.56
41688;BME280;27371;42.686;23.362;2023-06-26T02:11:45;167259.91;;;19.38;92.42
41688;BME280;27371;42.686;23.362;2023-06-26T02:14:11;167251.84;;;19.34;92.36
41688;BME280;27371;42.686;23.362;2023-06-26T02:16:37;167270.66;;;19.42;92.10
41688;BME280;27371;42.686;23.362;2023-06-26T02:19:03;167231.69;;;19.27;92.45
41688;BME280;27371;42.686;23.362;2023-06-26T02:21:28;167258.56;;;19.37;92.27
41688;BME280;27371;42.686;23.362;2023-06-26T02:23:54;167229.03;;;19.26;92.31
41688;BME280;27371;42.686;23.362;2023-06-26T02:26:19;167237.06;;;19.29;92.38
41688;BME280;27371;42.686;23.362;2023-06-26T02:28:45;167247.84;;;19.33;92.39
41688;BME280;27371;42.686;23.362;2023-06-26T02:31:11;167247.84;;;19.33;92.37
41688;BME280;27371;42.686;23.362;2023-06-26T02:33:36;167250.50;;;19.34;92.45
41688;BME280;27371;42.686;23.362;2023-06-26T02:36:02;167249.19;;;19.33;92.50
41688;BME280;27371;42.686;23.362;2023-06-26T02:38:27;167249.19;;;19.33;92.50
41688;BME280;27371;42.686;23.362;2023-06-26T02:40:53;167242.47;;;19.31;92.46
41688;BME280;27371;42.686;23.362;2023-06-26T02:43:18;167235.75;;;19.28;92.49
41688;BME280;27371;42.686;23.362;2023-06-26T02:45:44;167233.06;;;19.27;92.67
41688;BME280;27371;42.686;23.362;2023-06-26T02:48:09;167234.41;;;19.28;92.83
41688;BME280;27371;42.686;23.362;2023-06-26T02:50:35;167227.69;;;19.25;92.79
41688;BME280;27371;42.686;23.362;2023-06-26T02:53:01;167234.41;;;19.28;92.68
41688;BME280;27371;42.686;23.362;2023-06-26T02:55:27;167225.03;;;19.24;92.96
41688;BME280;27371;42.686;23.362;2023-06-26T02:57:52;167195.44;;;19.13;93.06
41688;BME280;27371;42.686;23.362;2023-06-26T03:00:18;167222.31;;;19.23;93.05
41688;BME280;27371;42.686;23.362;2023-06-26T03:02:43;167220.97;;;19.23;93.27
41688;BME280;27371;42.686;23.362;2023-06-26T03:05:09;167211.59;;;19.19;93.32
41688;BME280;27371;42.686;23.362;2023-06-26T03:07:34;167207.53;;;19.18;93.37
41688;BME280;27371;42.686;23.362;2023-06-26T03:10:00;167180.66;;;19.07;93.33
41688;BME280;27371;42.686;23.362;2023-06-26T03:12:26;167200.81;;;19.15;93.37
41688;BME280;27371;42.686;23.362;2023-06-26T03:14:51;167207.53;;;19.18;93.18
41688;BME280;27371;42.686;23.362;2023-06-26T03:17:17;167212.91;;;19.20;93.40
41688;BME280;27371;42.686;23.362;2023-06-26T03:19:42;167211.59;;;19.19;93.17
41688;BME280;27371;42.686;23.362;2023-06-26T03:22:08;167183.38;;;19.08;93.37
41688;BME280;27371;42.686;23.362;2023-06-26T03:24:33;167220.97;;;19.23;93.61
41688;BME280;27371;42.686;23.362;2023-06-26T03:26:59;167267.94;;;19.41;93.07
41688;BME280;27371;42.686;23.362;2023-06-26T03:29:25;167289.44;;;19.49;91.98
41688;BME280;27371;42.686;23.362;2023-06-26T03:31:51;167344.56;;;19.70;90.59
41688;BME280;27371;42.686;23.362;2023-06-26T03:34:16;167374.13;;;19.81;89.88
41688;BME280;27371;42.686;23.362;2023-06-26T03:36:42;167390.22;;;19.87;89.00
41688;BME280;27371;42.686;23.362;2023-06-26T03:39:07;167366.06;;;19.78;88.43
41688;BME280;27371;42.686;23.362;2023-06-26T03:41:33;167317.63;;;19.59;88.35
41688;BME280;27371;42.686;23.362;2023-06-26T03:43:59;167333.84;;;19.66;88.75
41688;BME280;27371;42.686;23.362;2023-06-26T03:46:26;167308.25;;;19.56;89.05
41688;BME280;27371;42.686;23.362;2023-06-26T03:48:51;167298.88;;;19.52;89.69
41688;BME280;27371;42.686;23.362;2023-06-26T03:51:17;167310.91;;;19.57;89.57
41688;BME280;27371;42.686;23.362;2023-06-26T03:53:43;167319.03;;;19.60;89.13
41688;BME280;27371;42.686;23.362;2023-06-26T03:56:08;167320.34;;;19.61;89.12
41688;BME280;27371;42.686;23.362;2023-06-26T03:58:34;167328.41;;;19.64;89.28
41688;BME280;27371;42.686;23.362;2023-06-26T04:00:59;167356.66;;;19.74;88.83
41688;BME280;27371;42.686;23.362;2023-06-26T04:03:25;167382.16;;;19.84;88.20
41688;BME280;27371;42.686;23.362;2023-06-26T04:05:51;167398.28;;;19.90;87.77
41688;BME280;27371;42.686;23.362;2023-06-26T04:08:16;167409.03;;;19.94;87.45
41688;BME280;27371;42.686;23.362;2023-06-26T04:10:42;167453.38;;;20.11;86.49
41688;BME280;27371;42.686;23.362;2023-06-26T04:13:11;167477.53;;;20.20;85.99
41688;BME280;27371;42.686;23.362;2023-06-26T04:15:37;167480.25;;;20.21;85.08
41688;BME280;27371;42.686;23.362;2023-06-26T04:18:02;167577.03;;;20.58;84.61
41688;BME280;27371;42.686;23.362;2023-06-26T04:20:28;167719.47;;;21.12;82.82
41688;BME280;27371;42.686;23.362;2023-06-26T04:22:53;167844.53;;;21.60;78.57
41688;BME280;27371;42.686;23.362;2023-06-26T04:25:19;167894.28;;;21.79;77.05
41688;BME280;27371;42.686;23.362;2023-06-26T04:27:44;167871.44;;;21.70;76.70
41688;BME280;27371;42.686;23.362;2023-06-26T04:30:10;167843.19;;;21.60;76.75
41688;BME280;27371;42.686;23.362;2023-06-26T04:32:37;167814.97;;;21.49;77.17
41688;BME280;27371;42.686;23.362;2023-06-26T04:35:03;167801.50;;;21.44;77.47
41688;BME280;27371;42.686;23.362;2023-06-26T04:37:28;167769.22;;;21.31;77.66
41688;BME280;27371;42.686;23.362;2023-06-26T04:39:54;167785.41;;;21.38;77.80
41688;BME280;27371;42.686;23.362;2023-06-26T04:42:19;167762.50;;;21.29;77.66
41688;BME280;27371;42.686;23.362;2023-06-26T04:44:47;167759.78;;;21.28;77.82
41688;BME280;27371;42.686;23.362;2023-06-26T04:49:40;167749.06;;;21.24;77.49
41688;BME280;27371;42.686;23.362;2023-06-26T04:52:08;167745.00;;;21.22;77.87
41688;BME280;27371;42.686;23.362;2023-06-26T04:54:33;167785.41;;;21.38;77.51
41688;BME280;27371;42.686;23.362;2023-06-26T04:56:59;167789.41;;;21.39;76.88
41688;BME280;27371;42.686;23.362;2023-06-26T04:59:25;167796.13;;;21.42;77.52
41688;BME280;27371;42.686;23.362;2023-06-26T05:01:51;167767.84;;;21.31;77.39
41688;BME280;27371;42.686;23.362;2023-06-26T05:04:16;167779.94;;;21.35;78.04
41688;BME280;27371;42.686;23.362;2023-06-26T05:06:42;167757.13;;;21.27;77.99
41688;BME280;27371;42.686;23.362;2023-06-26T05:09:07;167784.06;;;21.37;77.16
41688;BME280;27371;42.686;23.362;2023-06-26T05:11:33;167804.19;;;21.45;76.97
41688;BME280;27371;42.686;23.362;2023-06-26T05:13:59;167798.84;;;21.43;76.67
41688;BME280;27371;42.686;23.362;2023-06-26T05:16:24;167812.28;;;21.48;76.73
41688;BME280;27371;42.686;23.362;2023-06-26T05:18:50;167833.81;;;21.56;76.88
41688;BME280;27371;42.686;23.362;2023-06-26T05:21:16;167794.78;;;21.41;77.22
41688;BME280;27371;42.686;23.362;2023-06-26T05:23:42;167813.63;;;21.48;77.59
41688;BME280;27371;42.686;23.362;2023-06-26T05:26:09;167808.25;;;21.46;77.42
41688;BME280;27371;42.686;23.362;2023-06-26T05:28:36;167785.41;;;21.38;77.88
41688;BME280;27371;42.686;23.362;2023-06-26T05:31:03;167782.69;;;21.37;77.68
41688;BME280;27371;42.686;23.362;2023-06-26T05:33:31;167782.69;;;21.37;77.31
41688;BME280;27371;42.686;23.362;2023-06-26T05:36:00;167819.03;;;21.50;77.18
41688;BME280;27371;42.686;23.362;2023-06-26T05:38:28;167813.63;;;21.48;77.07
41688;BME280;27371;42.686;23.362;2023-06-26T05:40:54;167831.09;;;21.55;76.80
41688;BME280;27371;42.686;23.362;2023-06-26T05:43:21;167836.47;;;21.57;76.65
41688;BME280;27371;42.686;23.362;2023-06-26T05:45:47;167828.41;;;21.54;76.50
41688;BME280;27371;42.686;23.362;2023-06-26T05:48:15;167896.94;;;21.80;75.67
41688;BME280;27371;42.686;23.362;2023-06-26T05:50:42;167888.91;;;21.77;75.60
41688;BME280;27371;42.686;23.362;2023-06-26T05:53:08;167919.81;;;21.89;75.10
41688;BME280;27371;42.686;23.362;2023-06-26T05:55:34;167974.97;;;22.10;74.65
41688;BME280;27371;42.686;23.362;2023-06-26T05:57:59;168009.97;;;22.23;73.98
41688;BME280;27371;42.686;23.362;2023-06-26T06:00:27;168018.03;;;22.26;73.04
41688;BME280;27371;42.686;23.362;2023-06-26T06:02:52;168018.03;;;22.26;72.92
41688;BME280;27371;42.686;23.362;2023-06-26T06:05:20;168040.91;;;22.35;72.89
41688;BME280;27371;42.686;23.362;2023-06-26T06:07:45;168048.97;;;22.38;72.50
41688;BME280;27371;42.686;23.362;2023-06-26T06:10:11;168075.88;;;22.48;72.25
41688;BME280;27371;42.686;23.362;2023-06-26T06:12:36;168090.66;;;22.54;71.72
41688;BME280;27371;42.686;23.362;2023-06-26T06:15:02;168139.09;;;22.72;70.91
41688;BME280;27371;42.686;23.362;2023-06-26T06:17:27;168214.47;;;23.01;70.08
41688;BME280;27371;42.686;23.362;2023-06-26T06:19:53;168264.25;;;23.20;69.22
41688;BME280;27371;42.686;23.362;2023-06-26T06:22:19;168304.63;;;23.35;67.83
41688;BME280;27371;42.686;23.362;2023-06-26T06:24:44;168350.34;;;23.52;67.79
41688;BME280;27371;42.686;23.362;2023-06-26T06:27:10;168437.88;;;23.86;66.91
41688;BME280;27371;42.686;23.362;2023-06-26T06:29:36;168466.16;;;23.96;65.45
41688;BME280;27371;42.686;23.362;2023-06-26T06:32:01;168537.47;;;24.23;64.00
41688;BME280;27371;42.686;23.362;2023-06-26T06:34:27;168518.63;;;24.16;64.17
41688;BME280;27371;42.686;23.362;2023-06-26T06:36:53;168480.94;;;24.02;64.19
41688;BME280;27371;42.686;23.362;2023-06-26T06:39:18;168460.75;;;23.94;63.90
41688;BME280;27371;42.686;23.362;2023-06-26T06:41:44;168464.81;;;23.96;63.86
41688;BME280;27371;42.686;23.362;2023-06-26T06:44:09;168466.16;;;23.96;63.04
41688;BME280;27371;42.686;23.362;2023-06-26T06:46:35;168420.34;;;23.79;63.20
41688;BME280;27371;42.686;23.362;2023-06-26T06:49:00;168503.81;;;24.11;63.16
41688;BME280;27371;42.686;23.362;2023-06-26T06:51:26;168537.47;;;24.23;62.02
41688;BME280;27371;42.686;23.362;2023-06-26T06:53:52;168637.09;;;24.61;61.69
41688;BME280;27371;42.686;23.362;2023-06-26T06:56:17;168680.19;;;24.78;61.23
41688;BME280;27371;42.686;23.362;2023-06-26T06:58:43;168739.44;;;25.00;59.48
41688;BME280;27371;42.686;23.362;2023-06-26T07:01:11;168760.97;;;25.08;59.28
41688;BME280;27371;42.686;23.362;2023-06-26T07:03:37;168824.31;;;25.32;59.17
41688;BME280;27371;42.686;23.362;2023-06-26T07:06:02;168804.13;;;25.25;58.03
41688;BME280;27371;42.686;23.362;2023-06-26T07:08:29;168798.78;;;25.23;57.31
41688;BME280;27371;42.686;23.362;2023-06-26T07:10:54;168751.56;;;25.05;57.02
41688;BME280;27371;42.686;23.362;2023-06-26T07:13:22;168800.09;;;25.23;57.28
41688;BME280;27371;42.686;23.362;2023-06-26T07:15:47;168711.19;;;24.89;57.89
41688;BME280;27371;42.686;23.362;2023-06-26T07:18:13;168711.19;;;24.89;58.36
41688;BME280;27371;42.686;23.362;2023-06-26T07:20:39;168759.63;;;25.08;57.42
41688;BME280;27371;42.686;23.362;2023-06-26T07:23:04;168845.88;;;25.41;56.76
41688;BME280;27371;42.686;23.362;2023-06-26T07:25:30;168883.56;;;25.55;55.84
41688;BME280;27371;42.686;23.362;2023-06-26T07:27:55;168872.81;;;25.51;55.28
41688;BME280;27371;42.686;23.362;2023-06-26T07:30:21;168860.69;;;25.46;55.72
41688;BME280;27371;42.686;23.362;2023-06-26T07:32:47;168910.53;;;25.65;54.71
41688;BME280;27371;42.686;23.362;2023-06-26T07:35:12;169004.88;;;26.01;53.48
41688;BME280;27371;42.686;23.362;2023-06-26T07:37:38;169111.31;;;26.41;52.81
41688;BME280;27371;42.686;23.362;2023-06-26T07:40:03;169217.78;;;26.82;51.17
41688;BME280;27371;42.686;23.362;2023-06-26T07:42:29;169207.03;;;26.78;49.39
41688;BME280;27371;42.686;23.362;2023-06-26T07:44:55;169314.88;;;27.19;49.51
41688;BME280;27371;42.686;23.362;2023-06-26T07:47:20;169291.94;;;27.10;48.92
41688;BME280;27371;42.686;23.362;2023-06-26T07:49:46;169186.81;;;26.70;49.60
41688;BME280;27371;42.686;23.362;2023-06-26T07:52:11;169111.31;;;26.41;50.39
41688;BME280;27371;42.686;23.362;2023-06-26T07:54:37;169135.59;;;26.51;49.77
41688;BME280;27371;42.686;23.362;2023-06-26T07:57:04;169208.34;;;26.78;49.83
41688;BME280;27371;42.686;23.362;2023-06-26T07:59:34;169234.00;;;26.88;48.52
41688;BME280;27371;42.686;23.362;2023-06-26T08:02:00;169367.44;;;27.39;47.83
41688;BME280;27371;42.686;23.362;2023-06-26T08:04:27;169417.31;;;27.58;47.29
41688;BME280;27371;42.686;23.362;2023-06-26T08:06:56;169393.03;;;27.48;47.22
41688;BME280;27371;42.686;23.362;2023-06-26T08:09:24;169414.59;;;27.57;46.88
41688;BME280;27371;42.686;23.362;2023-06-26T08:11:50;169374.19;;;27.41;46.66
41688;BME280;27371;42.686;23.362;2023-06-26T08:14:16;169341.81;;;27.29;46.84
41688;BME280;27371;42.686;23.362;2023-06-26T08:16:42;169314.88;;;27.19;47.92
41688;BME280;27371;42.686;23.362;2023-06-26T08:19:08;169359.38;;;27.36;47.02
41688;BME280;27371;42.686;23.362;2023-06-26T08:21:33;169397.09;;;27.50;46.90
41688;BME280;27371;42.686;23.362;2023-06-26T08:23:59;169375.53;;;27.42;47.33
41688;BME280;27371;42.686;23.362;2023-06-26T08:26:25;169371.44;;;27.40;47.20
41688;BME280;27371;42.686;23.362;2023-06-26T08:28:51;169333.72;;;27.26;47.63
41688;BME280;27371;42.686;23.362;2023-06-26T08:31:17;169336.47;;;27.27;47.42
41688;BME280;27371;42.686;23.362;2023-06-26T08:33:43;169382.25;;;27.44;47.40
41688;BME280;27371;42.686;23.362;2023-06-26T08:36:08;169343.19;;;27.29;47.17
41688;BME280;27371;42.686;23.362;2023-06-26T08:38:34;169331.06;;;27.25;47.45
41688;BME280;27371;42.686;23.362;2023-06-26T08:41:00;169250.16;;;26.94;47.95
41688;BME280;27371;42.686;23.362;2023-06-26T08:43:26;169212.41;;;26.80;48.37
41688;BME280;27371;42.686;23.362;2023-06-26T08:45:55;169287.88;;;27.08;47.56
41688;BME280;27371;42.686;23.362;2023-06-26T08:48:20;169384.94;;;27.45;46.10
41688;BME280;27371;42.686;23.362;2023-06-26T08:50:48;169402.50;;;27.52;45.37
41688;BME280;27371;42.686;23.362;2023-06-26T08:56:00;169467.19;;;27.76;45.00
41688;BME280;27371;42.686;23.362;2023-06-26T08:58:27;169475.34;;;27.80;45.48
41688;BME280;27371;42.686;23.362;2023-06-26T09:00:53;169480.75;;;27.82;44.86
41688;BME280;27371;42.686;23.362;2023-06-26T09:03:21;169455.06;;;27.72;45.28
41688;BME280;27371;42.686;23.362;2023-06-26T09:05:46;169425.41;;;27.61;45.16
41688;BME280;27371;42.686;23.362;2023-06-26T09:08:12;169422.72;;;27.60;45.93
41688;BME280;27371;42.686;23.362;2023-06-26T09:10:39;169415.97;;;27.57;45.55
41688;BME280;27371;42.686;23.362;2023-06-26T09:13:05;169417.31;;;27.58;45.53
41688;BME280;27371;42.686;23.362;2023-06-26T09:15:38;169406.50;;;27.53;45.21
41688;BME280;27371;42.686;23.362;2023-06-26T09:18:04;169398.44;;;27.50;45.10
41688;BME280;27371;42.686;23.362;2023-06-26T09:20:30;169402.50;;;27.52;45.05
41688;BME280;27371;42.686;23.362;2023-06-26T09:22:58;169359.38;;;27.36;46.79
41688;BME280;27371;42.686;23.362;2023-06-26T09:25:24;169308.16;;;27.16;46.10
41688;BME280;27371;42.686;23.362;2023-06-26T09:27:50;169332.38;;;27.25;46.10
41688;BME280;27371;42.686;23.362;2023-06-26T09:30:18;169320.25;;;27.21;45.38
41688;BME280;27371;42.686;23.362;2023-06-26T09:32:45;169322.97;;;27.22;45.75
41688;BME280;27371;42.686;23.362;2023-06-26T09:35:10;169341.81;;;27.29;46.14
41688;BME280;27371;42.686;23.362;2023-06-26T09:37:37;169349.94;;;27.32;45.87
41688;BME280;27371;42.686;23.362;2023-06-26T09:40:03;169331.06;;;27.25;46.22
41688;BME280;27371;42.686;23.362;2023-06-26T09:42:30;169277.06;;;27.04;46.60
41688;BME280;27371;42.686;23.362;2023-06-26T09:44:59;169263.63;;;26.99;46.54
41688;BME280;27371;42.686;23.362;2023-06-26T09:47:25;169219.16;;;26.82;45.91
41688;BME280;27371;42.686;23.362;2023-06-26T09:49:50;169217.78;;;26.82;46.37
41688;BME280;27371;42.686;23.362;2023-06-26T09:52:18;169220.50;;;26.83;46.62
41688;BME280;27371;42.686;23.362;2023-06-26T09:54:44;169176.03;;;26.66;45.77
41688;BME280;27371;42.686;23.362;2023-06-26T09:57:18;169120.72;;;26.45;46.26
41688;BME280;27371;42.686;23.362;2023-06-26T09:59:45;169139.66;;;26.52;46.03
41688;BME280;27371;42.686;23.362;2023-06-26T10:02:11;169136.94;;;26.51;45.76
41688;BME280;27371;42.686;23.362;2023-06-26T10:04:37;169108.59;;;26.40;46.46
41688;BME280;27371;42.686;23.362;2023-06-26T10:07:08;169062.78;;;26.23;46.67
41688;BME280;27371;42.686;23.362;2023-06-26T10:09:40;169045.31;;;26.16;46.25
41688;BME280;27371;42.686;23.362;2023-06-26T10:12:09;169045.31;;;26.16;45.97
41688;BME280;27371;42.686;23.362;2023-06-26T10:14:40;169015.63;;;26.05;46.24
41688;BME280;27371;42.686;23.362;2023-06-26T10:17:10;168963.09;;;25.85;47.10
41688;BME280;27371;42.686;23.362;2023-06-26T10:19:38;168959.09;;;25.84;47.51
41688;BME280;27371;42.686;23.362;2023-06-26T10:22:04;168902.44;;;25.62;48.54
41688;BME280;27371;42.686;23.362;2023-06-26T10:24:33;168882.25;;;25.54;48.38
41688;BME280;27371;42.686;23.362;2023-06-26T10:27:08;168882.25;;;25.54;48.22
41688;BME280;27371;42.686;23.362;2023-06-26T10:29:36;168876.84;;;25.52;47.98
41688;BME280;27371;42.686;23.362;2023-06-26T10:32:03;168831.06;;;25.35;48.36
41688;BME280;27371;42.686;23.362;2023-06-26T10:34:29;168794.72;;;25.21;48.32
41688;BME280;27371;42.686;23.362;2023-06-26T10:37:00;168760.97;;;25.08;48.74
41688;BME280;27371;42.686;23.362;2023-06-26T10:39:26;168781.22;;;25.16;47.52
41688;BME280;27371;42.686;23.362;2023-06-26T10:41:54;168781.22;;;25.16;47.70
41688;BME280;27371;42.686;23.362;2023-06-26T10:44:20;168769.09;;;25.11;47.70
41688;BME280;27371;42.686;23.362;2023-06-26T10:46:52;168766.38;;;25.10;47.09
41688;BME280;27371;42.686;23.362;2023-06-26T10:49:21;168765.03;;;25.10;47.30
41688;BME280;27371;42.686;23.362;2023-06-26T10:51:50;168783.97;;;25.17;47.51
41688;BME280;27371;42.686;23.362;2023-06-26T10:54:17;168797.38;;;25.22;48.25
41688;BME280;27371;42.686;23.362;2023-06-26T10:56:48;168820.31;;;25.31;48.59
41688;BME280;27371;42.686;23.362;2023-06-26T10:59:22;168823.00;;;25.32;49.35
41688;BME280;27371;42.686;23.362;2023-06-26T11:01:56;168813.56;;;25.28;49.54
41688;BME280;27371;42.686;23.362;2023-06-26T11:04:38;168836.47;;;25.37;49.41
41688;BME280;27371;42.686;23.362;2023-06-26T11:10:08;168843.19;;;25.40;48.29
41688;BME280;27371;42.686;23.362;2023-06-26T11:12:43;168849.94;;;25.42;47.89
41688;BME280;27371;42.686;23.362;2023-06-26T11:15:14;168855.28;;;25.44;48.30
41688;BME280;27371;42.686;23.362;2023-06-26T11:17:41;168837.81;;;25.38;48.70
41688;BME280;27371;42.686;23.362;2023-06-26T11:20:11;168919.94;;;25.69;48.64
41688;BME280;27371;42.686;23.362;2023-06-26T11:22:38;168968.50;;;25.87;47.99
41688;BME280;27371;42.686;23.362;2023-06-26T11:25:05;169043.91;;;26.16;47.24
41688;BME280;27371;42.686;23.362;2023-06-26T11:27:32;169104.56;;;26.39;45.82
41688;BME280;27371;42.686;23.362;2023-06-26T11:30:04;169201.63;;;26.76;45.59
41688;BME280;27371;42.686;23.362;2023-06-26T11:32:51;169250.16;;;26.94;44.49
41688;BME280;27371;42.686;23.362;2023-06-26T11:35:26;169256.88;;;26.97;44.08
41688;BME280;27371;42.686;23.362;2023-06-26T11:38:00;169283.81;;;27.07;43.85
41688;BME280;27371;42.686;23.362;2023-06-26T11:40:30;169228.59;;;26.86;43.30
41688;BME280;27371;42.686;23.362;2023-06-26T11:42:59;169207.03;;;26.78;43.81
41688;BME280;27371;42.686;23.362;2023-06-26T11:45:31;169177.38;;;26.67;43.87
41688;BME280;27371;42.686;23.362;2023-06-26T11:47:58;169158.50;;;26.59;43.65
41688;BME280;27371;42.686;23.362;2023-06-26T11:50:24;169136.94;;;26.51;44.41
41688;BME280;27371;42.686;23.362;2023-06-26T11:52:56;169127.47;;;26.48;43.53
41688;BME280;27371;42.686;23.362;2023-06-26T11:55:23;169132.88;;;26.50;44.59
41688;BME280;27371;42.686;23.362;2023-06-26T11:57:50;169150.41;;;26.56;44.43
41688;BME280;27371;42.686;23.362;2023-06-26T12:00:16;169197.59;;;26.74;44.41
41688;BME280;27371;42.686;23.362;2023-06-26T12:02:44;169239.34;;;26.90;44.12
41688;BME280;27371;42.686;23.362;2023-06-26T12:05:11;169260.91;;;26.98;43.49
41688;BME280;27371;42.686;23.362;2023-06-26T12:07:37;169258.22;;;26.97;43.80
41688;BME280;27371;42.686;23.362;2023-06-26T12:10:04;169247.41;;;26.93;43.96
41688;BME280;27371;42.686;23.362;2023-06-26T12:12:30;169295.94;;;27.12;44.01
41688;BME280;27371;42.686;23.362;2023-06-26T12:14:57;169331.06;;;27.25;43.24
41688;BME280;27371;42.686;23.362;2023-06-26T12:17:23;169360.69;;;27.36;43.47
41688;BME280;27371;42.686;23.362;2023-06-26T12:19:52;169380.94;;;27.44;43.93
41688;BME280;27371;42.686;23.362;2023-06-26T12:22:18;169414.59;;;27.57;42.28
41688;BME280;27371;42.686;23.362;2023-06-26T12:24:45;169437.56;;;27.65;41.73
41688;BME280;27371;42.686;23.362;2023-06-26T12:27:13;169438.88;;;27.66;41.04
41688;BME280;27371;42.686;23.362;2023-06-26T12:29:41;169440.22;;;27.66;41.98
41688;BME280;27371;42.686;23.362;2023-06-26T12:32:10;169440.22;;;27.66;41.14
41688;BME280;27371;42.686;23.362;2023-06-26T12:34:37;169425.41;;;27.61;41.81
41688;BME280;27371;42.686;23.362;2023-06-26T12:37:10;169397.09;;;27.50;41.45
41688;BME280;27371;42.686;23.362;2023-06-26T12:39:58;169382.25;;;27.44;41.10
41688;BME280;27371;42.686;23.362;2023-06-26T12:42:25;169366.09;;;27.38;41.27
41688;BME280;27371;42.686;23.362;2023-06-26T12:44:52;169275.72;;;27.04;42.40
41688;BME280;27371;42.686;23.362;2023-06-26T12:47:24;169242.06;;;26.91;43.06
41688;BME280;27371;42.686;23.362;2023-06-26T12:49:50;169212.41;;;26.80;42.92
41688;BME280;27371;42.686;23.362;2023-06-26T12:52:17;169170.63;;;26.64;43.79
41688;BME280;27371;42.686;23.362;2023-06-26T12:54:44;169145.00;;;26.54;44.37
41688;BME280;27371;42.686;23.362;2023-06-26T12:57:12;169131.47;;;26.49;44.96
41688;BME280;27371;42.686;23.362;2023-06-26T12:59:39;169157.16;;;26.59;45.12